Time;durP1;ratioP1;P1;durP2;ratioP2;P2;SDS_P1;SDS_P2;PMS_P1;PMS_P2;Temp;Humidity;BMP_temperature;BMP_pressure;BME280_temperature;BME280_humidity;BME280_pressure;Samples;Min_cycle;Max_cycle;Signal;HPM_P1;HPM_P2
2022/07/31 00:02:29;;;;;;;29.35;23.30;;;;;;;12.19;100.00;96821.94;10369394;28;20201;-65
2022/07/31 00:07:30;;;;;;;25.33;19.85;;;;;;;12.21;100.00;96818.19;10368318;28;20232;-64
2022/07/31 00:12:30;;;;;;;26.10;21.48;;;;;;;12.17;100.00;96821.31;10388309;23;20232;-57
2022/07/31 00:17:30;;;;;;;24.23;21.17;;;;;;;12.32;100.00;96825.72;10367857;28;20199;-55
2022/07/31 00:22:31;;;;;;;24.00;20.48;;;;;;;12.24;100.00;96833.63;10368051;28;20272;-59
2022/07/31 00:27:31;;;;;;;23.13;19.42;;;;;;;12.24;100.00;96825.72;10367553;28;20224;-58
2022/07/31 00:32:32;;;;;;;27.15;20.00;;;;;;;12.15;100.00;96824.09;10366350;28;20687;-58
2022/07/31 00:37:35;;;;;;;25.77;20.92;;;;;;;12.16;100.00;96831.00;10367979;28;20610;-58
2022/07/31 00:42:35;;;;;;;27.42;23.05;;;;;;;12.22;100.00;96838.22;10367250;28;20239;-60
2022/07/31 00:47:36;;;;;;;29.95;22.48;;;;;;;12.16;100.00;96835.41;10367710;28;20588;-52
2022/07/31 00:52:36;;;;;;;26.42;20.35;;;;;;;12.21;100.00;96841.00;10366804;28;20217;-54
2022/07/31 00:57:37;;;;;;;32.58;20.73;;;;;;;12.08;100.00;96823.94;10366869;28;20662;-52
2022/07/31 01:02:37;;;;;;;25.65;21.02;;;;;;;12.09;100.00;96830.00;10366230;28;20217;-52
2022/07/31 01:07:37;;;;;;;26.70;21.08;;;;;;;11.98;100.00;96839.00;10366314;28;20216;-54
2022/07/31 01:12:44;;;;;;;27.05;19.77;;;;;;;11.98;100.00;96839.00;10366269;28;20240;-53
2022/07/31 01:17:46;;;;;;;24.73;20.23;;;;;;;12.01;100.00;96833.44;10351780;28;20204;-52
2022/07/31 01:23:00;;;;;;;28.35;21.00;;;;;;;11.99;100.00;96843.28;10356794;28;20216;-52
2022/07/31 01:28:23;;;;;;;23.40;20.10;;;;;;;12.12;100.00;96840.97;10357128;28;20212;-53
2022/07/31 01:33:29;;;;;;;23.83;20.37;;;;;;;12.07;100.00;96834.59;10340168;28;20197;-55
2022/07/31 01:38:36;;;;;;;23.92;19.23;;;;;;;12.05;100.00;96831.28;10340419;28;20296;-58
2022/07/31 01:43:41;;;;;;;21.20;18.55;;;;;;;12.03;100.00;96831.47;10356950;28;20717;-54
2022/07/31 01:48:43;;;;;;;25.70;18.10;;;;;;;12.10;100.00;96827.22;10340230;28;20225;-59
2022/07/31 01:53:45;;;;;;;21.25;18.92;;;;;;;12.17;100.00;96829.19;10356259;28;20280;-58
2022/07/31 01:58:48;;;;;;;25.27;17.55;;;;;;;12.15;100.00;96828.53;10356097;28;20210;-56
2022/07/31 02:04:11;;;;;;;18.58;16.55;;;;;;;12.11;100.00;96826.22;10359040;28;20193;-57
2022/07/31 02:09:12;;;;;;;20.40;16.38;;;;;;;12.02;100.00;96821.97;10355187;28;20237;-57
2022/07/31 02:14:13;;;;;;;17.83;15.38;;;;;;;11.97;100.00;96811.09;10355089;28;20185;-58
2022/07/31 02:19:13;;;;;;;21.85;16.83;;;;;;;12.00;100.00;96805.53;10338665;28;20700;-59
2022/07/31 02:24:14;;;;;;;18.42;15.43;;;;;;;11.92;100.00;96805.50;10354985;28;20231;-58
2022/07/31 02:29:16;;;;;;;21.65;15.75;;;;;;;11.97;100.00;96805.03;10354741;28;20595;-57
2022/07/31 02:34:21;;;;;;;18.17;14.48;;;;;;;11.86;100.00;96800.91;10338810;28;20221;-56
2022/07/31 02:39:23;;;;;;;21.88;15.13;;;;;;;11.84;100.00;96801.06;10338139;28;20202;-57
2022/07/31 02:44:25;;;;;;;19.95;14.23;;;;;;;11.82;100.00;96810.88;10354451;28;20566;-54
2022/07/31 02:49:26;;;;;;;19.55;14.90;;;;;;;11.82;100.00;96792.50;10354205;28;20312;-53
2022/07/31 02:54:27;;;;;;;20.95;17.30;;;;;;;11.65;100.00;96796.91;10354750;28;20189;-55
2022/07/31 02:59:27;;;;;;;21.63;17.40;;;;;;;11.65;100.00;96799.53;10353612;28;20721;-57
2022/07/31 03:04:31;;;;;;;18.40;15.65;;;;;;;11.66;100.00;96790.69;10353010;28;20212;-54
2022/07/31 03:09:32;;;;;;;17.33;15.53;;;;;;;11.68;100.00;96787.91;10369560;28;20247;-52
2022/07/31 03:14:52;;;;;;;18.80;15.85;;;;;;;11.67;100.00;96784.47;10371010;28;20185;-54
2022/07/31 03:19:53;;;;;;;20.52;16.10;;;;;;;11.68;100.00;96774.78;10336412;28;20217;-51
2022/07/31 03:24:54;;;;;;;19.15;14.50;;;;;;;11.74;100.00;96777.56;10352568;28;20197;-56
2022/07/31 03:29:55;;;;;;;17.30;15.50;;;;;;;11.70;100.00;96773.66;10370009;28;20217;-57
2022/07/31 03:34:55;;;;;;;18.23;13.90;;;;;;;11.72;100.00;96778.75;10369814;28;20200;-56
2022/07/31 03:39:56;;;;;;;18.30;15.07;;;;;;;11.79;100.00;96774.47;10368922;28;20292;-54
2022/07/31 03:44:56;;;;;;;19.17;14.03;;;;;;;11.80;100.00;96770.88;10368379;28;20243;-52
2022/07/31 03:49:59;;;;;;;14.13;12.68;;;;;;;11.84;100.00;96776.59;10367845;28;20221;-56
2022/07/31 03:55:00;;;;;;;15.43;13.83;;;;;;;11.78;100.00;96767.59;10351541;28;20537;-55
2022/07/31 04:00:01;;;;;;;16.02;13.82;;;;;;;11.80;100.00;96767.44;10334975;28;20205;-58
2022/07/31 04:05:04;;;;;;;14.73;13.20;;;;;;;11.85;100.00;96763.34;10351417;28;20698;-53
2022/07/31 04:10:05;;;;;;;16.85;13.57;;;;;;;11.76;100.00;96766.91;10350527;28;20229;-54
2022/07/31 04:15:06;;;;;;;14.05;12.60;;;;;;;11.88;100.00;96772.69;10368470;28;20188;-53
2022/07/31 04:20:07;;;;;;;17.25;12.57;;;;;;;11.95;100.00;96769.25;10366681;28;20300;-60
2022/07/31 04:25:08;;;;;;;14.57;13.02;;;;;;;11.91;100.00;96778.44;10366703;28;20189;-56
2022/07/31 04:30:27;;;;;;;14.43;12.93;;;;;;;12.03;100.00;96773.69;10367928;28;20231;-57
2022/07/31 04:35:27;;;;;;;17.05;12.25;;;;;;;12.01;100.00;96773.03;10366811;28;20204;-59
2022/07/31 04:40:28;;;;;;;13.10;11.80;;;;;;;12.31;100.00;96770.72;10366236;28;20292;-53
2022/07/31 04:45:28;;;;;;;15.98;11.70;;;;;;;12.48;100.00;96774.16;10366543;28;20185;-56
2022/07/31 04:50:28;;;;;;;12.32;10.40;;;;;;;12.73;100.00;96772.31;10365127;28;20972;-56
2022/07/31 04:55:31;;;;;;;11.73;9.73;;;;;;;13.02;100.00;96773.53;10367285;28;20213;-57
2022/07/31 05:00:32;;;;;;;9.02;8.23;;;;;;;13.30;100.00;96776.50;10365678;28;20208;-60
2022/07/31 05:05:32;;;;;;;9.10;7.70;;;;;;;13.70;100.00;96771.22;10365977;28;20686;-61
2022/07/31 05:15:51;;;;;;;8.40;6.68;;;;;;;14.45;100.00;96757.28;10365574;28;20277;-52
2022/07/31 05:20:52;;;;;;;11.02;6.45;;;;;;;15.04;100.00;96757.50;10365205;28;20236;-54
2022/07/31 05:26:04;;;;;;;10.30;6.35;;;;;;;15.38;100.00;96749.00;10365055;28;20288;-55
2022/07/31 05:31:06;;;;;;;8.50;6.38;;;;;;;15.63;100.00;96753.94;10365516;28;20631;-52
2022/07/31 05:36:07;;;;;;;9.75;6.18;;;;;;;15.73;100.00;96753.59;10365922;28;20213;-56
2022/07/31 05:41:08;;;;;;;5.45;4.70;;;;;;;15.82;100.00;96750.69;10365179;28;20624;-55
2022/07/31 05:46:27;;;;;;;7.68;5.05;;;;;;;15.99;100.00;96764.47;10366033;28;20735;-55
2022/07/31 05:51:29;;;;;;;8.30;5.00;;;;;;;16.22;100.00;96750.25;10364856;28;20221;-53
2022/07/31 05:56:29;;;;;;;5.97;4.75;;;;;;;16.47;100.00;96758.56;10365985;28;20209;-57
2022/07/31 06:01:32;;;;;;;5.80;4.47;;;;;;;16.37;100.00;96758.06;10366041;28;20292;-54
2022/07/31 06:06:36;;;;;;;4.80;4.28;;;;;;;16.65;100.00;96758.06;10372156;28;20719;-53
2022/07/31 06:11:37;;;;;;;5.03;4.55;;;;;;;16.70;100.00;96753.00;10390743;23;20343;-60
2022/07/31 06:16:37;;;;;;;5.43;4.43;;;;;;;16.95;100.00;96749.91;10372116;28;20200;-58
2022/07/31 06:21:38;;;;;;;5.20;4.47;;;;;;;17.35;100.00;96743.97;10387930;28;20780;-57
2022/07/31 06:26:38;;;;;;;4.82;3.97;;;;;;;17.52;100.00;96749.72;10371847;28;20250;-58
2022/07/31 06:31:38;;;;;;;6.07;3.75;;;;;;;17.79;100.00;96742.66;10371247;28;20213;-60
2022/07/31 06:36:39;;;;;;;5.10;3.83;;;;;;;18.71;100.00;96734.91;10387531;28;20289;-61
2022/07/31 06:41:48;;;;;;;6.72;3.30;;;;;;;18.55;100.00;96730.88;10371097;28;20217;-58
2022/07/31 06:47:03;;;;;;;8.82;3.22;;;;;;;19.10;91.67;96717.28;10371829;28;20224;-60
2022/07/31 06:52:16;;;;;;;5.07;3.55;;;;;;;19.22;95.39;96744.00;10370861;28;20539;-57
2022/07/31 06:57:17;;;;;;;3.85;3.38;;;;;;;19.77;88.66;96719.63;10371408;28;20186;-61
2022/07/31 07:02:17;;;;;;;8.68;4.10;;;;;;;20.14;85.23;96711.78;10371684;28;20213;-60
2022/07/31 07:07:18;;;;;;;5.18;3.50;;;;;;;20.23;87.46;96750.38;10359046;28;20210;-60
2022/07/31 07:12:18;;;;;;;3.35;3.00;;;;;;;20.75;83.01;96731.50;10350881;28;20331;-60
2022/07/31 07:17:20;;;;;;;9.45;3.55;;;;;;;19.88;85.28;96742.03;10357231;28;20201;-58
2022/07/31 07:22:21;;;;;;;5.28;4.15;;;;;;;19.41;88.18;96742.28;10370939;28;20205;-58
2022/07/31 07:27:22;;;;;;;7.88;3.78;;;;;;;19.68;87.75;96750.91;10369434;28;20762;-60
2022/07/31 07:32:22;;;;;;;4.03;3.50;;;;;;;21.03;82.78;96716.88;10368744;28;20303;-59
2022/07/31 07:37:23;;;;;;;9.60;3.90;;;;;;;20.66;81.42;96733.63;10368281;28;20287;-60
2022/07/31 07:42:24;;;;;;;3.90;3.40;;;;;;;21.01;79.93;96722.41;10363216;28;20209;-60
2022/07/31 07:47:24;;;;;;;5.75;3.28;;;;;;;22.47;74.10;96679.72;10357331;28;20578;-61
2022/07/31 07:52:25;;;;;;;4.28;3.47;;;;;;;20.96;77.91;96706.25;10326888;28;20209;-60
2022/07/31 07:57:37;;;;;;;7.10;4.15;;;;;;;20.16;83.00;96733.66;10353420;28;20201;-57
2022/07/31 08:02:56;;;;;;;5.00;3.83;;;;;;;21.98;79.08;96690.59;10370213;28;20584;-60
2022/07/31 08:07:57;;;;;;;6.22;3.85;;;;;;;22.69;72.03;96650.56;10369257;28;20213;-59
2022/07/31 08:13:15;;;;;;;6.15;3.45;;;;;;;20.95;76.63;96686.03;10361878;28;20328;-61
2022/07/31 08:18:21;;;;;;;4.40;3.30;;;;;;;22.39;74.55;96671.03;10344721;28;20575;-60
2022/07/31 08:23:21;;;;;;;3.40;3.10;;;;;;;23.65;68.22;96617.88;10345340;28;20221;-61
2022/07/31 08:28:25;;;;;;;9.85;2.75;;;;;;;23.86;65.70;96581.63;10357656;28;20205;-60
2022/07/31 08:33:26;;;;;;;2.90;2.60;;;;;;;25.18;62.06;96564.75;10366577;28;20190;-61
2022/07/31 08:38:28;;;;;;;6.68;3.65;;;;;;;22.96;67.37;96616.09;10367774;28;20181;-60
2022/07/31 08:43:47;;;;;;;3.75;2.60;;;;;;;24.92;60.36;96540.38;10366076;28;20281;-60
2022/07/31 08:48:52;;;;;;;2.58;2.28;;;;;;;23.87;63.18;96580.53;10367486;28;20711;-61
2022/07/31 08:53:53;;;;;;;3.35;2.80;;;;;;;24.60;57.82;96494.78;10366250;28;20936;-59
2022/07/31 08:58:56;;;;;;;3.78;2.42;;;;;;;24.03;61.00;96566.34;10366034;28;20205;-61
2022/07/31 09:03:57;;;;;;;4.15;2.60;;;;;;;24.99;58.13;96526.78;10365739;28;20194;-60
2022/07/31 09:08:58;;;;;;;2.75;2.40;;;;;;;25.83;56.76;96532.56;10365437;28;20667;-62
2022/07/31 09:14:01;;;;;;;4.25;3.03;;;;;;;22.62;62.06;96551.91;10366066;28;20197;-62
2022/07/31 09:19:10;;;;;;;2.90;2.70;;;;;;;24.75;59.69;96545.84;10364902;28;21029;-61
2022/07/31 09:24:12;;;;;;;5.45;3.08;;;;;;;24.90;57.49;96510.34;10367280;28;20201;-60
2022/07/31 09:29:13;;;;;;;3.00;2.78;;;;;;;24.53;58.22;96528.94;10365236;28;20304;-60
2022/07/31 09:34:24;;;;;;;3.38;2.63;;;;;;;24.18;59.83;96549.69;10365672;28;20671;-61
2022/07/31 09:39:55;;;;;;;4.47;2.88;;;;;;;25.44;56.19;96492.63;10373852;28;20216;-58
2022/07/31 09:45:22;;;;;;;4.63;2.70;;;;;;;25.72;54.50;96483.41;10375155;28;20243;-59
2022/07/31 09:50:23;;;;;;;3.38;2.25;;;;;;;24.63;56.67;96488.13;10372498;28;20593;-59
2022/07/31 09:55:24;;;;;;;3.80;2.47;;;;;;;25.57;57.11;96527.03;10373188;28;20199;-58
2022/07/31 10:00:25;;;;;;;4.95;2.40;;;;;;;25.87;54.66;96484.56;10372215;28;20220;-58
2022/07/31 10:05:26;;;;;;;7.25;2.95;;;;;;;23.48;57.42;96468.94;10372309;28;20203;-61
2022/07/31 10:10:29;;;;;;;4.53;3.20;;;;;;;23.62;60.00;96524.78;10372498;28;20236;-61
2022/07/31 10:15:45;;;;;;;6.43;3.35;;;;;;;25.41;56.32;96509.22;10372336;28;20274;-60
2022/07/31 10:21:06;;;;;;;5.28;3.28;;;;;;;25.56;55.35;96487.88;10373029;28;20210;-62
2022/07/31 10:26:32;;;;;;;3.42;2.55;;;;;;;26.73;54.64;96512.09;10330692;28;20577;-62
2022/07/31 10:31:33;;;;;;;5.90;3.45;;;;;;;26.32;54.47;96486.66;10346641;28;20260;-61
2022/07/31 10:36:36;;;;;;;7.07;3.13;;;;;;;26.50;53.97;96481.91;10330627;28;20201;-61
2022/07/31 10:42:12;;;;;;;5.60;2.92;;;;;;;26.39;53.88;96488.31;10331565;28;20252;-60
2022/07/31 10:47:13;;;;;;;8.73;2.95;;;;;;;27.50;52.75;96479.88;10330280;28;20217;-61
2022/07/31 10:52:36;;;;;;;6.13;2.83;;;;;;;27.72;50.57;96441.91;10345936;28;20228;-62
2022/07/31 10:57:48;;;;;;;9.30;3.10;;;;;;;26.21;53.32;96463.53;10331366;28;20193;-61
2022/07/31 11:02:57;;;;;;;5.65;3.30;;;;;;;24.80;56.77;96493.38;10329867;28;20273;-61
2022/07/31 11:08:12;;;;;;;3.83;2.67;;;;;;;26.62;52.12;96455.59;10329730;28;20255;-59
2022/07/31 11:13:28;;;;;;;6.45;3.15;;;;;;;26.33;52.43;96434.56;10343741;28;20233;-61
2022/07/31 11:18:39;;;;;;;5.78;2.63;;;;;;;27.29;51.51;96446.78;10329555;28;20190;-60
2022/07/31 11:23:39;;;;;;;5.60;2.63;;;;;;;27.84;50.80;96441.59;10329913;28;20205;-60
2022/07/31 11:28:42;;;;;;;3.92;2.70;;;;;;;28.10;47.82;96381.22;10330095;28;20222;-60
2022/07/31 11:33:45;;;;;;;7.38;2.85;;;;;;;29.41;46.63;96398.88;10331314;28;20198;-59
2022/07/31 11:38:48;;;;;;;5.10;2.78;;;;;;;29.57;46.01;96386.00;10331552;28;20767;-59
2022/07/31 11:43:50;;;;;;;5.60;2.50;;;;;;;29.96;44.22;96366.16;10329336;28;20623;-61
2022/07/31 11:48:52;;;;;;;5.97;2.72;;;;;;;27.09;47.99;96365.06;10329112;28;20230;-60
2022/07/31 11:53:56;;;;;;;5.78;2.80;;;;;;;26.58;51.33;96424.16;10329163;28;20197;-61
2022/07/31 11:58:57;;;;;;;4.03;2.85;;;;;;;26.52;52.62;96461.75;10328977;28;20497;-60
2022/07/31 12:03:58;;;;;;;7.45;3.38;;;;;;;25.38;55.71;96488.28;10328231;28;20186;-60
2022/07/31 12:08:59;;;;;;;8.18;3.10;;;;;;;25.64;55.85;96491.94;10328608;28;20238;-61
2022/07/31 12:13:59;;;;;;;7.38;2.60;;;;;;;26.04;52.76;96431.53;10388523;22;20704;-58
2022/07/31 12:19:00;;;;;;;6.53;3.17;;;;;;;26.15;53.03;96449.28;10368005;28;20346;-57
2022/07/31 12:24:00;;;;;;;4.40;2.57;;;;;;;25.53;53.05;96424.00;10368259;28;20217;-57
2022/07/31 12:29:03;;;;;;;5.13;2.70;;;;;;;26.76;51.35;96423.66;10367779;28;20502;-60
2022/07/31 12:34:03;;;;;;;3.95;2.83;;;;;;;27.39;49.47;96395.69;10368205;28;20759;-56
2022/07/31 12:39:04;;;;;;;5.00;2.80;;;;;;;27.14;49.98;96396.53;10367795;28;20276;-58
2022/07/31 12:44:12;;;;;;;7.32;2.60;;;;;;;27.01;50.26;96385.25;10367261;28;20217;-58
2022/07/31 12:49:12;;;;;;;5.30;2.42;;;;;;;27.02;47.32;96327.69;10367382;28;20213;-60
2022/07/31 12:54:15;;;;;;;5.07;2.20;;;;;;;27.57;46.96;96337.81;10367459;28;20237;-59
2022/07/31 12:59:16;;;;;;;5.93;2.50;;;;;;;28.53;46.50;96331.34;10367123;28;20232;-60
2022/07/31 13:04:16;;;;;;;6.93;2.53;;;;;;;28.89;45.67;96331.88;10366933;28;20222;-59
2022/07/31 13:09:17;;;;;;;5.27;2.10;;;;;;;30.05;40.41;96224.72;10366844;28;20574;-60
2022/07/31 13:14:19;;;;;;;3.40;1.58;;;;;;;29.50;39.00;96175.84;10365810;28;20480;-56
2022/07/31 13:19:20;;;;;;;2.85;1.77;;;;;;;30.05;40.39;96230.13;10366460;28;20197;-56
2022/07/31 13:24:20;;;;;;;4.82;2.05;;;;;;;29.08;41.82;96232.19;10366683;28;20213;-58
2022/07/31 13:29:21;;;;;;;4.63;2.10;;;;;;;28.56;43.32;96250.75;10366456;28;20684;-61
2022/07/31 13:34:21;;;;;;;1.92;1.83;;;;;;;28.86;44.41;96286.63;10366379;28;20319;-60
2022/07/31 13:39:21;;;;;;;3.15;1.95;;;;;;;29.10;39.75;96153.69;10366525;28;20239;-61
2022/07/31 13:44:22;;;;;;;4.53;1.50;;;;;;;30.80;40.12;96232.97;10366004;28;20224;-59
2022/07/31 13:49:28;;;;;;;7.27;2.10;;;;;;;27.47;43.87;96193.34;10366277;28;20275;-59
2022/07/31 13:54:28;;;;;;;2.15;1.58;;;;;;;29.21;41.91;96228.03;10365963;28;20460;-59
2022/07/31 13:59:28;;;;;;;3.00;1.90;;;;;;;30.69;40.64;96242.34;10366163;28;20189;-60
2022/07/31 14:04:29;;;;;;;1.53;1.20;;;;;;;32.69;35.82;96188.47;10365920;28;20248;-57
2022/07/31 14:09:32;;;;;;;4.07;1.58;;;;;;;32.36;34.86;96127.22;10365657;28;20843;-58
2022/07/31 14:14:33;;;;;;;2.30;1.10;;;;;;;32.50;33.87;96126.31;10365513;28;20704;-61
2022/07/31 14:19:33;;;;;;;1.57;1.23;;;;;;;31.60;35.36;96125.28;10365542;28;20195;-59
2022/07/31 14:24:35;;;;;;;3.58;1.13;;;;;;;33.44;31.40;96077.22;10368323;28;20464;-61
2022/07/31 14:29:35;;;;;;;1.48;0.70;;;;;;;34.57;30.03;96091.72;10372639;28;20347;-61
2022/07/31 14:34:36;;;;;;;2.83;1.30;;;;;;;33.09;31.92;96051.97;10372550;28;20227;-63
2022/07/31 14:39:36;;;;;;;1.90;0.87;;;;;;;32.82;31.27;96032.94;10372458;28;20686;-63
2022/07/31 14:44:40;;;;;;;2.72;1.25;;;;;;;31.71;32.80;96039.16;10371972;28;20468;-62
2022/07/31 14:49:40;;;;;;;3.33;1.08;;;;;;;31.33;35.36;96107.19;10354334;28;20419;-60
2022/07/31 14:54:41;;;;;;;3.17;1.30;;;;;;;33.24;33.32;96136.47;10372087;28;20200;-61
2022/07/31 14:59:41;;;;;;;3.03;1.00;;;;;;;33.06;32.07;96091.38;10371529;28;20427;-58
2022/07/31 15:04:41;;;;;;;5.65;1.05;;;;;;;30.57;36.50;96132.78;10371627;28;20942;-58
2022/07/31 15:09:42;;;;;;;3.33;1.20;;;;;;;33.37;32.64;96134.75;10371020;28;20324;-60
2022/07/31 15:14:42;;;;;;;1.57;0.97;;;;;;;35.42;30.43;96128.88;10330401;28;20472;-60
2022/07/31 15:19:43;;;;;;;3.17;1.05;;;;;;;31.44;35.28;96086.09;10330365;28;20448;-59
2022/07/31 15:24:47;;;;;;;1.23;0.80;;;;;;;33.68;32.97;96131.06;10330028;28;20268;-58
2022/07/31 15:29:47;;;;;;;1.20;1.10;;;;;;;32.68;33.39;96098.19;10329667;28;21010;-56
2022/07/31 15:34:48;;;;;;;1.67;1.20;;;;;;;31.49;34.30;96069.75;10328831;28;20202;-59
2022/07/31 15:39:48;;;;;;;1.42;0.93;;;;;;;32.08;32.56;96058.00;10329491;28;20591;-59
2022/07/31 15:44:49;;;;;;;1.33;0.90;;;;;;;32.98;32.39;96090.25;10329226;28;20284;-58
2022/07/31 15:49:49;;;;;;;1.70;0.93;;;;;;;32.99;32.00;96067.44;10328888;28;20437;-60
2022/07/31 15:54:49;;;;;;;2.60;0.90;;;;;;;33.27;32.66;96090.81;10344113;28;20461;-63
2022/07/31 15:59:54;;;;;;;4.10;1.23;;;;;;;32.71;32.55;96078.56;10328344;28;20572;-60
2022/07/31 16:04:54;;;;;;;5.03;1.15;;;;;;;32.59;32.58;96067.50;10328614;28;20441;-62
2022/07/31 16:09:55;;;;;;;1.70;1.00;;;;;;;29.83;36.78;96079.53;10329542;28;20205;-61
2022/07/31 16:14:55;;;;;;;2.67;1.70;;;;;;;30.54;35.63;96068.50;10368621;28;20452;-59
2022/07/31 16:19:56;;;;;;;2.60;1.05;;;;;;;30.42;35.95;96070.91;10368440;28;20575;-60
2022/07/31 16:24:56;;;;;;;1.20;1.10;;;;;;;29.24;37.88;96086.34;10367825;28;20570;-60
2022/07/31 16:29:57;;;;;;;1.87;1.10;;;;;;;28.18;38.98;96088.94;10368238;28;20195;-60
2022/07/31 16:34:57;;;;;;;1.33;1.00;;;;;;;28.35;39.56;96109.25;10367462;28;20451;-60
2022/07/31 16:40:00;;;;;;;2.55;1.40;;;;;;;27.16;41.61;96125.44;10367897;28;20486;-62
2022/07/31 16:45:00;;;;;;;1.75;1.10;;;;;;;27.48;41.11;96133.06;10367544;28;20273;-59
2022/07/31 16:50:01;;;;;;;1.73;1.20;;;;;;;27.63;40.81;96121.41;10367210;28;20277;-60
2022/07/31 16:55:01;;;;;;;3.17;1.30;;;;;;;26.42;43.64;96157.41;10366157;28;20519;-60
2022/07/31 17:00:03;;;;;;;1.65;1.25;;;;;;;26.36;43.50;96163.88;10364826;28;20488;-58
2022/07/31 17:05:04;;;;;;;2.30;1.38;;;;;;;25.81;45.80;96201.97;10364582;28;20284;-59
2022/07/31 17:10:04;;;;;;;1.58;1.10;;;;;;;25.87;45.40;96195.53;10363335;28;20239;-60
2022/07/31 17:15:05;;;;;;;1.95;1.20;;;;;;;25.72;46.17;96208.91;10363570;28;20189;-59
2022/07/31 17:20:06;;;;;;;2.97;1.20;;;;;;;25.85;45.63;96208.41;10363434;28;20307;-60
2022/07/31 17:25:07;;;;;;;2.47;1.38;;;;;;;25.50;46.31;96201.06;10363344;28;20201;-60
2022/07/31 17:30:08;;;;;;;3.05;1.40;;;;;;;25.37;46.72;96221.16;10363319;28;20738;-60
2022/07/31 17:35:09;;;;;;;9.00;1.50;;;;;;;24.90;47.80;96226.31;10363319;28;20201;-61
2022/07/31 17:40:09;;;;;;;3.35;1.23;;;;;;;24.85;47.36;96228.94;10364989;28;20299;-60
2022/07/31 17:45:10;;;;;;;2.35;1.13;;;;;;;24.68;48.72;96250.53;10364900;28;20255;-61
2022/07/31 17:50:10;;;;;;;1.80;1.27;;;;;;;24.43;49.39;96256.50;10362843;28;20209;-59
2022/07/31 17:55:11;;;;;;;2.78;1.60;;;;;;;24.26;50.45;96279.91;10363432;28;20193;-59
2022/07/31 18:00:11;;;;;;;2.50;1.60;;;;;;;23.13;52.76;96304.34;10368035;28;20212;-59
2022/07/31 18:05:12;;;;;;;3.45;1.30;;;;;;;22.23;55.94;96348.81;10372363;28;20255;-59
2022/07/31 18:10:12;;;;;;;3.13;1.35;;;;;;;21.88;59.36;96411.09;10372646;28;20303;-61
2022/07/31 18:15:13;;;;;;;2.13;1.65;;;;;;;21.41;61.70;96440.44;10381548;22;20249;-59
2022/07/31 18:20:13;;;;;;;2.88;1.20;;;;;;;20.84;63.73;96455.09;10352181;28;20228;-59
2022/07/31 18:25:14;;;;;;;3.22;1.45;;;;;;;21.16;63.10;96444.16;10371570;28;20217;-63
2022/07/31 18:30:15;;;;;;;4.93;1.58;;;;;;;20.71;64.42;96448.13;10372646;28;20570;-63
2022/07/31 18:35:15;;;;;;;1.88;1.77;;;;;;;20.80;64.24;96451.28;10372268;28;20292;-61
2022/07/31 18:40:15;;;;;;;4.03;1.63;;;;;;;20.96;65.34;96460.44;10372291;28;20228;-62
2022/07/31 18:45:16;;;;;;;2.63;1.35;;;;;;;20.82;66.70;96471.28;10372214;28;20211;-62
2022/07/31 18:50:16;;;;;;;4.72;1.60;;;;;;;20.54;68.26;96471.88;10371941;28;20197;-63
2022/07/31 18:55:17;;;;;;;3.45;1.88;;;;;;;20.37;69.09;96478.84;10371851;28;20287;-63
2022/07/31 19:00:17;;;;;;;6.60;1.75;;;;;;;20.23;70.09;96483.53;10371715;28;20572;-63
2022/07/31 19:05:17;;;;;;;2.65;1.75;;;;;;;19.83;71.76;96482.16;10371513;28;20806;-62
2022/07/31 19:10:18;;;;;;;7.32;2.17;;;;;;;19.89;71.30;96469.81;10370351;28;20655;-63
2022/07/31 19:15:18;;;;;;;6.72;2.00;;;;;;;19.90;71.45;96474.09;10370104;28;20240;-63
2022/07/31 19:20:19;;;;;;;4.07;1.95;;;;;;;19.78;75.03;96511.22;10370677;28;20865;-63
2022/07/31 19:25:20;;;;;;;2.30;2.08;;;;;;;19.51;79.70;96514.13;10358261;28;20636;-63
2022/07/31 19:30:20;;;;;;;2.50;2.30;;;;;;;19.19;81.83;96500.09;10370504;28;20557;-62
2022/07/31 19:35:20;;;;;;;2.22;2.00;;;;;;;18.85;87.96;96516.25;10369799;28;20220;-62
2022/07/31 19:40:21;;;;;;;5.57;2.53;;;;;;;18.53;99.07;96528.66;10370278;28;20275;-64
2022/07/31 19:45:21;;;;;;;7.10;2.67;;;;;;;18.06;100.00;96533.31;10362300;28;20209;-61
2022/07/31 19:50:22;;;;;;;8.55;2.95;;;;;;;17.80;100.00;96534.97;10346803;28;20660;-62
2022/07/31 19:55:24;;;;;;;11.77;3.13;;;;;;;17.43;100.00;96542.53;10347157;28;20288;-63
2022/07/31 20:00:24;;;;;;;6.38;3.22;;;;;;;17.22;100.00;96544.34;10346373;28;20224;-60
2022/07/31 20:05:24;;;;;;;6.68;3.67;;;;;;;17.24;100.00;96552.94;10348604;28;20244;-60
2022/07/31 20:10:25;;;;;;;3.70;3.28;;;;;;;17.23;100.00;96553.13;10346250;28;20265;-64
2022/07/31 20:15:25;;;;;;;4.25;3.60;;;;;;;17.11;100.00;96521.94;10345707;28;20237;-64
2022/07/31 20:20:25;;;;;;;3.60;3.30;;;;;;;17.19;100.00;96520.94;10329752;28;20228;-63
2022/07/31 20:25:26;;;;;;;4.55;3.67;;;;;;;17.35;100.00;96518.91;10327557;28;20775;-63
2022/07/31 20:30:26;;;;;;;3.75;3.13;;;;;;;17.44;100.00;96510.56;10327162;28;20194;-63
2022/07/31 20:35:26;;;;;;;3.47;3.10;;;;;;;17.50;100.00;96506.25;10327401;28;20292;-64
2022/07/31 20:40:27;;;;;;;6.47;3.33;;;;;;;17.54;100.00;96498.72;10327543;28;20229;-64
2022/07/31 20:45:28;;;;;;;4.63;3.22;;;;;;;17.50;100.00;96506.25;10327365;28;20772;-63
2022/07/31 20:50:29;;;;;;;7.40;3.42;;;;;;;17.54;100.00;96496.88;10327547;28;20683;-63
2022/07/31 20:55:30;;;;;;;3.67;3.08;;;;;;;17.55;100.00;96495.03;10326976;28;20664;-64
2022/07/31 21:00:32;;;;;;;3.63;2.92;;;;;;;17.59;100.00;96490.97;10327220;28;20727;-63
2022/07/31 21:05:33;;;;;;;5.43;3.20;;;;;;;17.67;100.00;96487.28;10326451;28;20217;-63
2022/07/31 21:10:34;;;;;;;3.30;2.95;;;;;;;17.71;100.00;96477.91;10327050;28;20198;-63
2022/07/31 21:15:35;;;;;;;4.47;2.90;;;;;;;17.83;100.00;96481.56;10326558;28;20606;-59
2022/07/31 21:20:35;;;;;;;4.82;3.05;;;;;;;17.78;100.00;96470.78;10326060;28;20225;-63
2022/07/31 21:25:35;;;;;;;4.05;3.20;;;;;;;17.78;100.00;96474.22;10326811;28;20224;-64
2022/07/31 21:30:37;;;;;;;3.53;3.20;;;;;;;17.78;100.00;96473.41;10326418;28;20186;-65
2022/07/31 21:35:38;;;;;;;3.45;2.95;;;;;;;17.72;100.00;96472.41;10331198;28;20205;-63
2022/07/31 21:40:39;;;;;;;3.13;2.83;;;;;;;17.83;100.00;96470.94;10334643;28;20217;-64
2022/07/31 21:45:40;;;;;;;4.35;2.67;;;;;;;17.86;100.00;96472.38;10338108;28;20217;-64
2022/07/31 21:50:41;;;;;;;6.60;3.10;;;;;;;17.74;100.00;96472.19;10337019;28;20202;-62
2022/07/31 21:55:42;;;;;;;3.88;2.90;;;;;;;17.85;100.00;96486.66;10333711;28;20249;-61
2022/07/31 22:00:43;;;;;;;3.45;2.97;;;;;;;17.78;100.00;96484.03;10333828;28;20222;-61
2022/07/31 22:11:02;;;;;;;6.30;3.30;;;;;;;17.58;100.00;96500.75;10333185;28;20657;-61
2022/07/31 22:16:03;;;;;;;2.95;2.67;;;;;;;17.68;100.00;96497.69;10332784;28;20246;-62
2022/07/31 22:21:06;;;;;;;4.47;3.03;;;;;;;17.81;100.00;96489.72;10331981;28;20225;-62
2022/07/31 22:26:07;;;;;;;3.53;2.97;;;;;;;17.80;100.00;96487.25;10332633;28;20285;-62
2022/07/31 22:31:09;;;;;;;3.78;3.38;;;;;;;17.82;100.00;96477.25;10332476;28;20310;-63
2022/07/31 22:36:09;;;;;;;3.72;3.08;;;;;;;17.74;100.00;96466.91;10331939;28;20648;-62
2022/07/31 22:41:11;;;;;;;3.28;2.92;;;;;;;17.89;100.00;96469.34;10332206;28;20292;-62
2022/07/31 22:46:11;;;;;;;5.00;3.10;;;;;;;17.78;100.00;96471.56;10331405;28;20218;-62
2022/07/31 22:51:12;;;;;;;4.55;2.90;;;;;;;17.82;100.00;96475.44;10331740;28;20665;-63
2022/07/31 22:56:12;;;;;;;5.35;3.30;;;;;;;17.86;100.00;96473.19;10331209;28;20218;-62
2022/07/31 23:01:13;;;;;;;4.75;3.00;;;;;;;17.73;100.00;96468.72;10331212;28;20217;-62
2022/07/31 23:06:13;;;;;;;5.38;3.38;;;;;;;17.67;100.00;96480.16;10331033;28;20352;-63
2022/07/31 23:11:13;;;;;;;5.70;3.45;;;;;;;17.71;100.00;96476.06;10330787;28;20243;-62
2022/07/31 23:16:14;;;;;;;9.82;3.47;;;;;;;17.71;100.00;96457.53;10330608;28;20324;-61
2022/07/31 23:21:14;;;;;;;3.97;2.97;;;;;;;17.63;100.00;96455.09;10329904;28;20237;-61
2022/07/31 23:26:19;;;;;;;3.20;2.75;;;;;;;17.67;100.00;96460.78;10330256;28;20722;-62